createdAt,value
2023-02-08T00:01:02.093Z,102746.25
2023-02-08T00:03:05.090Z,102747.47
2023-02-08T00:05:08.685Z,102752.28
2023-02-08T00:07:11.502Z,102742.44
2023-02-08T00:09:14.984Z,102740.72
2023-02-08T00:11:17.858Z,102746.84
2023-02-08T00:13:22.055Z,102748.03
2023-02-08T00:15:24.869Z,102749.28
2023-02-08T00:17:27.715Z,102744.81
2023-02-08T00:19:30.512Z,102743.31
2023-02-08T00:21:33.377Z,102746.69
2023-02-08T00:23:36.475Z,102745.91
2023-02-08T00:25:39.485Z,102745.84
2023-02-08T00:27:42.310Z,102755.31
2023-02-08T00:29:46.540Z,102741.91
2023-02-08T00:31:49.387Z,102752.78
2023-02-08T00:33:52.250Z,102752.25
2023-02-08T00:35:59.781Z,102749.28
2023-02-08T00:38:02.654Z,102758.63
2023-02-08T00:40:06.159Z,102747.47
2023-02-08T00:42:09.533Z,102741.47
2023-02-08T00:44:12.413Z,102742.66
2023-02-08T00:46:16.620Z,102741.16
2023-02-08T00:48:19.431Z,102733.84
2023-02-08T00:50:22.684Z,102737.06
2023-02-08T00:52:25.547Z,102743.75
2023-02-08T00:54:28.351Z,102739.47
2023-02-08T00:56:31.324Z,102741.25
2023-02-08T00:58:35.999Z,102735.19
2023-02-08T01:00:39.155Z,102719.00
2023-02-08T01:02:44.005Z,102721.50
2023-02-08T01:04:47.239Z,102729.03
2023-02-08T01:06:50.096Z,102725.63
2023-02-08T01:08:52.953Z,102717.72
2023-02-08T01:11:03.654Z,102722.09
2023-02-08T01:13:06.463Z,102722.91
2023-02-08T01:15:10.249Z,102721.19
2023-02-08T01:17:13.768Z,102717.94
2023-02-08T01:19:17.992Z,102716.09
2023-02-08T01:21:22.882Z,102715.25
2023-02-08T01:23:25.863Z,102715.34
2023-02-08T01:25:28.782Z,102718.72
2023-02-08T01:27:31.614Z,102719.75
2023-02-08T01:29:34.477Z,102715.53
2023-02-08T01:31:39.312Z,102713.06
2023-02-08T01:33:42.685Z,102717.50
2023-02-08T01:35:46.876Z,102709.78
2023-02-08T01:37:49.713Z,102716.56
2023-02-08T01:39:52.538Z,102709.94
2023-02-08T01:41:57.217Z,102710.66
2023-02-08T01:44:09.213Z,102711.50
2023-02-08T01:46:12.123Z,102712.53
2023-02-08T01:48:18.550Z,102708.31
2023-02-08T01:50:23.557Z,102702.16
2023-02-08T01:52:28.815Z,102707.03
2023-02-08T01:54:37.784Z,102698.25
2023-02-08T01:56:45.638Z,102697.22
2023-02-08T01:58:54.267Z,102697.06
2023-02-08T02:00:57.270Z,102699.66
2023-02-08T02:03:00.419Z,102694.69
2023-02-08T02:05:03.367Z,102695.50
2023-02-08T02:07:06.841Z,102699.59
2023-02-08T02:09:16.329Z,102703.00
2023-02-08T02:11:19.751Z,102698.50
2023-02-08T02:13:24.866Z,102697.56
2023-02-08T02:15:27.778Z,102701.81
2023-02-08T02:17:31.170Z,102701.63
2023-02-08T02:19:40.023Z,102697.69
2023-02-08T02:21:52.594Z,102709.03
2023-02-08T02:24:14.848Z,102699.47
2023-02-08T02:26:32.844Z,102707.28
2023-02-08T02:29:07.907Z,102695.25
2023-02-08T02:31:34.810Z,102698.66
2023-02-08T02:33:48.710Z,102697.84
2023-02-08T02:35:57.731Z,102698.56
2023-02-08T02:38:09.104Z,102692.88
2023-02-08T02:40:17.752Z,102693.97
2023-02-08T02:42:44.261Z,102687.06
2023-02-08T02:44:55.210Z,102685.41
2023-02-08T02:47:06.592Z,102683.72
2023-02-08T02:49:14.597Z,102682.50
2023-02-08T02:51:20.338Z,102681.63
2023-02-08T02:53:29.195Z,102681.19
2023-02-08T02:55:35.785Z,102677.25
2023-02-08T02:57:39.138Z,102673.56
2023-02-08T02:59:43.028Z,102677.81
2023-02-08T03:01:47.196Z,102673.97
2023-02-08T03:03:51.667Z,102675.69
2023-02-08T03:05:56.192Z,102668.66
2023-02-08T03:08:19.776Z,102679.16
2023-02-08T03:10:31.946Z,102678.28
2023-02-08T03:12:41.696Z,102679.03
2023-02-08T03:14:52.267Z,102679.22
2023-02-08T03:17:05.364Z,102677.66
2023-02-08T03:19:18.460Z,102677.81
2023-02-08T03:21:27.094Z,102674.81
2023-02-08T03:23:31.945Z,102666.28
2023-02-08T03:25:40.983Z,102674.25
2023-02-08T03:27:51.156Z,102671.78
2023-02-08T03:29:58.694Z,102665.84
2023-02-08T03:32:05.417Z,102672.75
2023-02-08T03:34:13.226Z,102665.72
2023-02-08T03:36:20.991Z,102665.59
2023-02-08T03:38:26.303Z,102663.97
2023-02-08T03:40:32.420Z,102663.06
2023-02-08T03:42:37.186Z,102660.34
2023-02-08T03:44:42.890Z,102669.81
2023-02-08T03:46:51.999Z,102659.41
2023-02-08T03:48:57.599Z,102664.44
2023-02-08T03:51:02.985Z,102668.44
2023-02-08T03:53:06.705Z,102673.56
2023-02-08T03:55:13.584Z,102665.06
2023-02-08T03:57:20.414Z,102672.00
2023-02-08T03:59:26.242Z,102670.16
2023-02-08T04:01:33.382Z,102674.59
2023-02-08T04:03:36.591Z,102672.88
2023-02-08T04:05:39.441Z,102674.53
2023-02-08T04:07:43.667Z,102671.13
2023-02-08T04:09:46.977Z,102671.63
2023-02-08T04:11:49.799Z,102667.16
2023-02-08T04:13:52.633Z,102674.94
2023-02-08T04:15:55.491Z,102663.63
2023-02-08T04:17:58.359Z,102664.72
2023-02-08T04:20:01.551Z,102663.63
2023-02-08T04:22:04.468Z,102663.69
2023-02-08T04:24:09.210Z,102666.22
2023-02-08T04:26:12.036Z,102673.13
2023-02-08T04:28:14.895Z,102670.53
2023-02-08T04:30:17.799Z,102679.91
2023-02-08T04:32:20.710Z,102673.66
2023-02-08T04:34:23.709Z,102668.13
2023-02-08T04:36:26.612Z,102675.22
2023-02-08T04:38:29.423Z,102674.06
2023-02-08T04:40:33.634Z,102678.03
2023-02-08T04:42:36.554Z,102677.25
2023-02-08T04:44:39.423Z,102684.06
2023-02-08T04:46:42.229Z,102680.63
2023-02-08T04:48:45.222Z,102675.63
2023-02-08T04:50:48.258Z,102685.91
2023-02-08T04:52:51.054Z,102677.44
2023-02-08T04:54:54.141Z,102681.72
2023-02-08T04:56:58.403Z,102695.50
2023-02-08T04:59:02.127Z,102693.88
2023-02-08T05:01:07.634Z,102693.78
2023-02-08T05:03:10.839Z,102688.59
2023-02-08T05:05:13.663Z,102695.22
2023-02-08T05:07:16.489Z,102700.53
2023-02-08T05:09:19.582Z,102696.09
2023-02-08T05:11:23.158Z,102695.06
2023-02-08T05:13:27.735Z,102685.59
2023-02-08T05:15:30.580Z,102689.03
2023-02-08T05:17:33.753Z,102690.06
2023-02-08T05:19:36.665Z,102695.75
2023-02-08T05:21:39.551Z,102691.19
2023-02-08T05:23:42.361Z,102691.25
2023-02-08T05:25:45.814Z,102691.13
2023-02-08T05:27:49.037Z,102692.75
2023-02-08T05:29:53.268Z,102691.25
2023-02-08T05:31:56.116Z,102691.38
2023-02-08T05:33:59.196Z,102691.31
2023-02-08T05:36:03.226Z,102682.38
2023-02-08T05:38:08.817Z,102687.63
2023-02-08T05:40:13.320Z,102683.75
2023-02-08T05:42:16.116Z,102694.50
2023-02-08T05:44:19.098Z,102690.34
2023-02-08T05:46:23.351Z,102694.22
2023-02-08T05:48:26.181Z,102700.69
2023-02-08T05:50:29.046Z,102698.34
2023-02-08T05:52:31.896Z,102699.22
2023-02-08T05:54:34.749Z,102698.19
2023-02-08T05:56:38.021Z,102698.19
2023-02-08T05:58:41.582Z,102705.09
2023-02-08T06:00:44.570Z,102707.38
2023-02-08T06:02:49.131Z,102701.09
2023-02-08T06:04:52.418Z,102705.75
2023-02-08T06:06:55.351Z,102700.69
2023-02-08T06:08:58.187Z,102702.66
2023-02-08T06:11:01.052Z,102698.22
2023-02-08T06:13:04.522Z,102701.03
2023-02-08T06:15:07.768Z,102699.19
2023-02-08T06:17:10.574Z,102697.78
2023-02-08T06:19:15.117Z,102703.09
2023-02-08T06:21:24.867Z,102704.94
2023-02-08T06:23:27.717Z,102696.28
2023-02-08T06:25:30.705Z,102704.84
2023-02-08T06:27:33.771Z,102706.63
2023-02-08T06:29:36.754Z,102699.47
2023-02-08T06:31:39.835Z,102697.00
2023-02-08T06:33:43.006Z,102696.53
2023-02-08T06:35:47.656Z,102694.22
2023-02-08T06:37:50.538Z,102693.50
2023-02-08T06:39:53.437Z,102688.97
2023-02-08T06:41:56.371Z,102693.31
2023-02-08T06:44:01.100Z,102688.09
2023-02-08T06:46:04.937Z,102685.50
2023-02-08T06:48:07.811Z,102681.94
2023-02-08T06:50:11.236Z,102687.28
2023-02-08T06:52:15.407Z,102683.81
2023-02-08T06:54:18.238Z,102678.56
2023-02-08T06:56:21.370Z,102677.66
2023-02-08T06:58:24.270Z,102677.66
2023-02-08T07:00:27.118Z,102678.31
2023-02-08T07:02:29.984Z,102680.06
2023-02-08T07:04:33.035Z,102684.47
2023-02-08T07:06:35.856Z,102683.88
2023-02-08T07:08:40.064Z,102683.88
2023-02-08T07:10:45.142Z,102668.28
2023-02-08T07:12:49.039Z,102677.06
2023-02-08T07:14:51.942Z,102674.63
2023-02-08T07:16:56.255Z,102668.78
2023-02-08T07:18:59.547Z,102664.63
2023-02-08T07:21:02.452Z,102663.88
2023-02-08T07:23:06.215Z,102657.97
2023-02-08T07:25:10.803Z,102667.00
2023-02-08T07:27:14.356Z,102664.31
2023-02-08T07:29:17.160Z,102666.19
2023-02-08T07:31:19.954Z,102661.31
2023-02-08T07:33:23.222Z,102666.81
2023-02-08T07:35:27.438Z,102659.16
2023-02-08T07:37:30.240Z,102661.56
2023-02-08T07:39:33.322Z,102656.69
2023-02-08T07:41:37.476Z,102656.75
2023-02-08T07:43:41.199Z,102657.97
2023-02-08T07:45:44.144Z,102651.63
2023-02-08T07:47:47.289Z,102654.75
2023-02-08T07:49:50.472Z,102656.50
2023-02-08T07:51:53.389Z,102657.44
2023-02-08T07:53:56.333Z,102653.31
2023-02-08T07:55:59.675Z,102658.06
2023-02-08T07:58:03.899Z,102652.09
2023-02-08T08:00:07.870Z,102655.28
2023-02-08T08:02:16.465Z,102657.16
2023-02-08T08:04:19.810Z,102653.84
2023-02-08T08:06:23.836Z,102656.91
2023-02-08T08:08:26.720Z,102663.91
2023-02-08T08:10:29.659Z,102656.28
2023-02-08T08:12:32.727Z,102656.06
2023-02-08T08:14:37.063Z,102654.50
2023-02-08T08:16:40.477Z,102651.72
2023-02-08T08:18:43.672Z,102648.56
2023-02-08T08:20:47.064Z,102642.53
2023-02-08T08:22:49.999Z,102645.50
2023-02-08T08:24:52.853Z,102638.38
2023-02-08T08:26:55.868Z,102644.69
2023-02-08T08:28:58.791Z,102639.47
2023-02-08T08:31:03.328Z,102644.25
2023-02-08T08:33:07.056Z,102643.00
2023-02-08T08:35:10.611Z,102640.81
2023-02-08T08:37:13.440Z,102642.25
2023-02-08T08:39:16.264Z,102635.72
2023-02-08T08:41:19.185Z,102634.41
2023-02-08T08:43:22.048Z,102626.03
2023-02-08T08:45:25.156Z,102636.91
2023-02-08T08:47:29.497Z,102637.41
2023-02-08T08:49:32.426Z,102631.72
2023-02-08T08:51:35.701Z,102628.78
2023-02-08T08:53:38.910Z,102617.78
2023-02-08T08:55:41.789Z,102621.50
2023-02-08T08:57:44.684Z,102614.16
2023-02-08T08:59:47.607Z,102615.25
2023-02-08T09:01:50.500Z,102599.84
2023-02-08T09:03:54.759Z,102595.56
2023-02-08T09:05:57.853Z,102595.84
2023-02-08T09:08:01.388Z,102598.66
2023-02-08T09:10:04.753Z,102590.91
2023-02-08T09:12:08.121Z,102593.69
2023-02-08T09:14:11.046Z,102596.25
2023-02-08T09:16:15.807Z,102602.81
2023-02-08T09:18:18.677Z,102606.97
2023-02-08T09:20:23.978Z,102602.94
2023-02-08T09:22:27.488Z,102593.78
2023-02-08T09:24:30.324Z,102594.69
2023-02-08T09:26:33.265Z,102591.69
2023-02-08T09:28:36.153Z,102595.56
2023-02-08T09:30:39.026Z,102584.91
2023-02-08T09:32:41.963Z,102587.66
2023-02-08T09:34:44.814Z,102590.34
2023-02-08T09:36:49.073Z,102589.44
2023-02-08T09:38:57.544Z,102601.97
2023-02-08T09:41:07.191Z,102586.91
2023-02-08T09:43:12.843Z,102587.91
2023-02-08T09:45:30.962Z,102593.25
2023-02-08T09:47:36.351Z,102586.97
2023-02-08T09:49:41.871Z,102589.34
2023-02-08T09:51:51.063Z,102590.38
2023-02-08T09:54:01.090Z,102586.94
2023-02-08T09:56:06.076Z,102588.84
2023-02-08T09:58:18.082Z,102593.31
2023-02-08T10:00:25.840Z,102596.09
2023-02-08T10:02:30.582Z,102593.47
2023-02-08T10:04:51.137Z,102595.09
2023-02-08T10:06:54.048Z,102593.19
2023-02-08T10:09:00.688Z,102595.16
2023-02-08T10:11:14.227Z,102594.47
2023-02-08T10:13:41.093Z,102601.13
2023-02-08T10:15:49.323Z,102594.53
2023-02-08T10:18:24.261Z,102601.44
2023-02-08T10:20:34.400Z,102597.41
2023-02-08T10:22:44.913Z,102599.13
2023-02-08T10:25:20.656Z,102594.81
2023-02-08T10:27:25.496Z,102596.78
2023-02-08T10:29:53.731Z,102589.00
2023-02-08T10:32:09.406Z,102592.53
2023-02-08T10:34:19.105Z,102584.72
2023-02-08T10:36:23.307Z,102588.19
2023-02-08T10:38:44.010Z,102584.75
2023-02-08T10:40:52.174Z,102584.94
2023-02-08T10:43:02.285Z,102580.69
2023-02-08T10:45:22.393Z,102568.59
2023-02-08T10:47:37.870Z,102571.31
2023-02-08T10:49:46.163Z,102576.63
2023-02-08T10:51:49.179Z,102569.63
2023-02-08T10:53:52.248Z,102572.28
2023-02-08T10:55:56.478Z,102569.66
2023-02-08T10:58:01.155Z,102565.25
2023-02-08T11:00:06.770Z,102569.63
2023-02-08T11:02:18.931Z,102561.72
2023-02-08T11:04:22.015Z,102552.94
2023-02-08T11:06:27.244Z,102560.88
2023-02-08T11:08:30.196Z,102552.06
2023-02-08T11:10:33.117Z,102545.91
2023-02-08T11:12:37.318Z,102547.63
2023-02-08T11:14:47.047Z,102544.97
2023-02-08T11:16:51.570Z,102541.38
2023-02-08T11:18:56.808Z,102543.06
2023-02-08T11:21:01.477Z,102528.22
2023-02-08T11:23:04.795Z,102539.25
2023-02-08T11:25:08.623Z,102524.22
2023-02-08T11:27:19.760Z,102522.84
2023-02-08T11:29:25.151Z,102517.44
2023-02-08T11:31:28.461Z,102517.34
2023-02-08T11:33:31.663Z,102512.78
2023-02-08T11:35:34.789Z,102502.97
2023-02-08T11:37:37.978Z,102500.47
2023-02-08T11:39:42.105Z,102509.41
2023-02-08T11:41:45.708Z,102500.09
2023-02-08T11:44:00.967Z,102503.59
2023-02-08T11:46:06.253Z,102506.44
2023-02-08T11:48:23.445Z,102510.97
2023-02-08T11:50:28.660Z,102512.78
2023-02-08T11:52:33.075Z,102517.91
2023-02-08T11:54:41.142Z,102517.03
2023-02-08T11:56:44.057Z,102515.19
2023-02-08T11:59:02.286Z,102512.31
2023-02-08T12:01:14.179Z,102504.25
2023-02-08T12:03:19.373Z,102508.09
2023-02-08T12:05:31.141Z,102499.94
2023-02-08T12:07:50.914Z,102491.56
2023-02-08T12:10:08.321Z,102494.19
2023-02-08T12:12:17.937Z,102491.63
2023-02-08T12:14:32.675Z,102486.81
2023-02-08T12:17:05.786Z,102482.38
2023-02-08T12:19:26.468Z,102469.47
2023-02-08T12:21:33.451Z,102463.75
2023-02-08T12:23:49.776Z,102460.59
2023-02-08T12:25:59.179Z,102459.31
2023-02-08T12:28:07.343Z,102467.03
2023-02-08T12:30:19.023Z,102467.03
2023-02-08T12:32:40.014Z,102463.09
2023-02-08T12:34:59.055Z,102457.47
2023-02-08T12:37:35.063Z,102454.97
2023-02-08T12:39:59.463Z,102446.94
2023-02-08T12:42:12.597Z,102441.22
2023-02-08T12:44:26.895Z,102445.13
2023-02-08T12:46:44.267Z,102441.53
2023-02-08T12:49:09.265Z,102443.97
2023-02-08T12:51:21.164Z,102443.84
2023-02-08T12:53:30.967Z,102439.75
2023-02-08T12:55:36.529Z,102435.00
2023-02-08T12:57:39.595Z,102431.91
2023-02-08T12:59:46.201Z,102428.44
2023-02-08T13:01:51.597Z,102432.50
2023-02-08T13:04:00.650Z,102429.09
2023-02-08T13:06:07.130Z,102422.75
2023-02-08T13:08:29.424Z,102425.22
2023-02-08T13:10:35.953Z,102411.97
2023-02-08T13:12:42.216Z,102418.66
2023-02-08T13:14:48.570Z,102418.03
2023-02-08T13:16:53.834Z,102399.91
2023-02-08T13:19:07.576Z,102400.78
2023-02-08T13:21:15.451Z,102400.75
2023-02-08T13:23:24.125Z,102396.97
2023-02-08T13:25:31.509Z,102402.38
2023-02-08T13:27:34.710Z,102390.84
2023-02-08T13:29:38.904Z,102396.00
2023-02-08T13:31:43.741Z,102388.53
2023-02-08T13:34:00.800Z,102379.25
2023-02-08T13:36:06.042Z,102375.81
2023-02-08T13:38:21.722Z,102375.66
2023-02-08T13:40:28.635Z,102381.38
2023-02-08T13:42:35.679Z,102376.56
2023-02-08T13:44:39.618Z,102365.97
2023-02-08T13:46:46.637Z,102364.94
2023-02-08T13:48:51.496Z,102358.94
2023-02-08T13:50:56.785Z,102351.75
2023-02-08T13:53:01.181Z,102342.13
2023-02-08T13:55:41.521Z,102341.28
2023-02-08T13:57:52.176Z,102339.81
2023-02-08T14:00:22.976Z,102339.47
2023-02-08T14:02:30.676Z,102337.13
2023-02-08T14:04:38.287Z,102333.81
2023-02-08T14:06:47.624Z,102334.00
2023-02-08T14:08:56.665Z,102343.09
2023-02-08T14:11:06.417Z,102342.34
2023-02-08T14:13:25.152Z,102330.22
2023-02-08T14:15:31.784Z,102329.16
2023-02-08T14:17:35.211Z,102324.78
2023-02-08T14:19:39.411Z,102321.47
2023-02-08T14:21:46.130Z,102320.75
2023-02-08T14:24:01.972Z,102323.31
2023-02-08T14:26:09.599Z,102330.19
2023-02-08T14:28:27.139Z,102319.25
2023-02-08T14:30:32.982Z,102313.63
2023-02-08T14:32:39.429Z,102316.28
2023-02-08T14:34:42.387Z,102316.41
2023-02-08T14:36:45.313Z,102315.78
2023-02-08T14:38:54.030Z,102307.88
2023-02-08T14:40:59.171Z,102311.47
2023-02-08T14:43:03.107Z,102302.31
2023-02-08T14:45:06.647Z,102303.78
2023-02-08T14:47:13.338Z,102297.00
2023-02-08T14:49:18.071Z,102306.81
2023-02-08T14:51:25.305Z,102295.34
2023-02-08T14:53:32.336Z,102301.38
2023-02-08T14:55:43.313Z,102295.91
2023-02-08T14:57:47.628Z,102300.41
2023-02-08T14:59:51.492Z,102290.06
2023-02-08T15:01:58.332Z,102294.56
2023-02-08T15:04:02.821Z,102284.97
2023-02-08T15:06:19.558Z,102291.22
2023-02-08T15:08:23.036Z,102290.63
2023-02-08T15:10:28.574Z,102292.59
2023-02-08T15:12:33.652Z,102284.75
2023-02-08T15:14:41.331Z,102287.38
2023-02-08T15:16:44.913Z,102289.25
2023-02-08T15:18:49.359Z,102292.06
2023-02-08T15:21:04.155Z,102286.94
2023-02-08T15:23:17.612Z,102279.06
2023-02-08T15:25:25.790Z,102281.78
2023-02-08T15:27:30.221Z,102284.41
2023-02-08T15:29:44.903Z,102285.28
2023-02-08T15:31:48.225Z,102280.91
2023-02-08T15:33:53.434Z,102282.69
2023-02-08T15:35:58.621Z,102283.59
2023-02-08T15:38:02.700Z,102282.72
2023-02-08T15:40:06.178Z,102284.44
2023-02-08T15:42:16.981Z,102280.06
2023-02-08T15:44:22.464Z,102297.59
2023-02-08T15:46:28.330Z,102287.09
2023-02-08T15:48:31.457Z,102283.56
2023-02-08T15:50:34.579Z,102280.06
2023-02-08T15:52:37.676Z,102280.91
2023-02-08T15:54:40.523Z,102267.75
2023-02-08T15:56:50.854Z,102273.88
2023-02-08T15:58:55.883Z,102267.72
2023-02-08T16:01:00.085Z,102264.19
2023-02-08T16:03:08.471Z,102270.34
2023-02-08T16:05:20.668Z,102269.44
2023-02-08T16:07:27.175Z,102265.06
2023-02-08T16:09:30.359Z,102265.00
2023-02-08T16:11:35.101Z,102261.53
2023-02-08T16:13:40.577Z,102254.50
2023-02-08T16:15:45.309Z,102250.09
2023-02-08T16:17:48.794Z,102253.56
2023-02-08T16:19:53.058Z,102248.28
2023-02-08T16:21:57.256Z,102254.41
2023-02-08T16:24:02.010Z,102248.25
2023-02-08T16:26:13.954Z,102249.94
2023-02-08T16:28:27.840Z,102243.81
2023-02-08T16:30:31.284Z,102246.41
2023-02-08T16:32:36.075Z,102242.00
2023-02-08T16:34:39.743Z,102241.09
2023-02-08T16:36:45.695Z,102230.53
2023-02-08T16:39:22.283Z,102241.03
2023-02-08T16:42:14.397Z,102234.81
2023-02-08T16:44:25.324Z,102226.84
2023-02-08T16:46:28.880Z,102232.88
2023-02-08T16:48:35.900Z,102229.34
2023-02-08T16:50:39.616Z,102228.38
2023-02-08T16:52:44.249Z,102238.72
2023-02-08T16:54:47.090Z,102235.19
2023-02-08T16:56:55.708Z,102233.31
2023-02-08T16:58:58.594Z,102225.34
2023-02-08T17:01:05.321Z,102228.72
2023-02-08T17:03:08.228Z,102227.69
2023-02-08T17:05:11.163Z,102217.09
2023-02-08T17:07:18.596Z,102217.81
2023-02-08T17:09:23.196Z,102208.16
2023-02-08T17:11:28.304Z,102207.22
2023-02-08T17:13:31.190Z,102210.66
2023-02-08T17:15:34.057Z,102206.16
2023-02-08T17:17:37.287Z,102206.00
2023-02-08T17:19:40.158Z,102201.53
2023-02-08T17:21:42.972Z,102203.16
2023-02-08T17:23:46.706Z,102205.59
2023-02-08T17:25:50.951Z,102201.91
2023-02-08T17:27:56.928Z,102196.63
2023-02-08T17:29:59.837Z,102194.06
2023-02-08T17:32:02.839Z,102193.09
2023-02-08T17:34:05.954Z,102197.44
2023-02-08T17:36:10.152Z,102193.06
2023-02-08T17:38:13.928Z,102192.22
2023-02-08T17:40:18.024Z,102191.22
2023-02-08T17:42:22.246Z,102187.72
2023-02-08T17:44:25.662Z,102185.94
2023-02-08T17:46:30.469Z,102173.66
2023-02-08T17:48:40.861Z,102172.75
2023-02-08T17:50:47.872Z,102167.44
2023-02-08T17:52:50.863Z,102169.94
2023-02-08T17:54:53.728Z,102164.66
2023-02-08T17:56:58.624Z,102163.56
2023-02-08T17:59:04.150Z,102167.41
2023-02-08T18:01:07.834Z,102167.19
2023-02-08T18:03:12.020Z,102167.91
2023-02-08T18:05:15.306Z,102166.16
2023-02-08T18:07:19.459Z,102164.47
2023-02-08T18:09:22.421Z,102170.47
2023-02-08T18:11:25.432Z,102175.56
2023-02-08T18:13:28.627Z,102172.03
2023-02-08T18:15:32.854Z,102169.19
2023-02-08T18:17:35.884Z,102169.75
2023-02-08T18:19:39.524Z,102170.28
2023-02-08T18:21:42.475Z,102167.34
2023-02-08T18:23:46.424Z,102171.53
2023-02-08T18:25:49.266Z,102169.84
2023-02-08T18:27:52.199Z,102176.88
2023-02-08T18:29:55.277Z,102166.34
2023-02-08T18:31:59.615Z,102169.88
2023-02-08T18:34:02.658Z,102166.34
2023-02-08T18:36:06.952Z,102168.16
2023-02-08T18:38:10.076Z,102168.25
2023-02-08T18:40:13.474Z,102159.81
2023-02-08T18:42:19.031Z,102164.00
2023-02-08T18:44:22.066Z,102168.47
2023-02-08T18:46:26.738Z,102165.88
2023-02-08T18:48:31.424Z,102164.97
2023-02-08T18:50:34.605Z,102161.94
2023-02-08T18:52:37.544Z,102153.66
2023-02-08T18:54:40.959Z,102144.13
2023-02-08T18:56:45.890Z,102149.22
2023-02-08T18:58:48.808Z,102152.78
2023-02-08T19:00:52.060Z,102148.34
2023-02-08T19:02:55.149Z,102145.63
2023-02-08T19:04:59.313Z,102138.72
2023-02-08T19:07:02.188Z,102137.88
2023-02-08T19:09:06.762Z,102134.47
2023-02-08T19:11:16.401Z,102139.59
2023-02-08T19:13:19.252Z,102131.75
2023-02-08T19:15:22.080Z,102138.66
2023-02-08T19:17:24.984Z,102130.88
2023-02-08T19:19:27.932Z,102132.75
2023-02-08T19:21:32.796Z,102129.88
2023-02-08T19:23:35.671Z,102128.47
2023-02-08T19:25:39.742Z,102130.38
2023-02-08T19:27:42.795Z,102118.94
2023-02-08T19:29:45.892Z,102119.03
2023-02-08T19:31:50.348Z,102119.09
2023-02-08T19:33:57.029Z,102112.22
2023-02-08T19:36:00.134Z,102106.97
2023-02-08T19:38:04.376Z,102113.94
2023-02-08T19:40:08.310Z,102113.84
2023-02-08T19:42:11.198Z,102116.44
2023-02-08T19:44:16.818Z,102115.53
2023-02-08T19:46:22.419Z,102118.06
2023-02-08T19:48:25.637Z,102110.16
2023-02-08T19:50:28.508Z,102115.16
2023-02-08T19:52:31.412Z,102112.44
2023-02-08T19:54:35.615Z,102108.06
2023-02-08T19:56:38.559Z,102115.50
2023-02-08T19:58:41.502Z,102097.06
2023-02-08T20:00:44.381Z,102108.38
2023-02-08T20:02:47.485Z,102117.78
2023-02-08T20:04:50.494Z,102110.09
2023-02-08T20:06:54.551Z,102112.09
2023-02-08T20:08:57.479Z,102115.06
2023-02-08T20:11:01.723Z,102121.97
2023-02-08T20:13:04.713Z,102117.59
2023-02-08T20:15:08.255Z,102117.41
2023-02-08T20:17:11.092Z,102119.28
2023-02-08T20:19:13.988Z,102120.19
2023-02-08T20:21:17.139Z,102124.28
2023-02-08T20:23:22.685Z,102131.41
2023-02-08T20:25:26.124Z,102129.81
2023-02-08T20:27:32.256Z,102126.34
2023-02-08T20:29:35.068Z,102123.78
2023-02-08T20:31:40.597Z,102136.66
2023-02-08T20:33:43.921Z,102136.22
2023-02-08T20:35:46.949Z,102144.84
2023-02-08T20:37:49.947Z,102152.59
2023-02-08T20:39:53.227Z,102153.84
2023-02-08T20:41:56.153Z,102148.00
2023-02-08T20:44:00.804Z,102146.22
2023-02-08T20:46:07.035Z,102144.25
2023-02-08T20:48:09.957Z,102139.91
2023-02-08T20:50:18.642Z,102145.13
2023-02-08T20:52:22.603Z,102146.03
2023-02-08T20:54:31.628Z,102144.25
2023-02-08T20:56:36.747Z,102144.09
2023-02-08T20:58:40.228Z,102146.69
2023-02-08T21:00:46.270Z,102148.19
2023-02-08T21:02:49.314Z,102139.44
2023-02-08T21:04:52.236Z,102149.91
2023-02-08T21:06:55.095Z,102148.25
2023-02-08T21:08:58.565Z,102153.34
2023-02-08T21:11:02.652Z,102159.63
2023-02-08T21:13:05.510Z,102154.78
2023-02-08T21:15:09.523Z,102158.19
2023-02-08T21:17:14.041Z,102146.97
2023-02-08T21:19:17.356Z,102152.91
2023-02-08T21:21:20.738Z,102150.19
2023-02-08T21:23:23.581Z,102152.91
2023-02-08T21:25:26.399Z,102158.00
2023-02-08T21:27:29.793Z,102159.78
2023-02-08T21:29:32.875Z,102169.38
2023-02-08T21:31:37.648Z,102151.69
2023-02-08T21:33:42.665Z,102155.00
2023-02-08T21:35:45.552Z,102146.50
2023-02-08T21:37:48.403Z,102153.50
2023-02-08T21:39:51.274Z,102148.28
2023-02-08T21:41:55.470Z,102143.09
2023-02-08T21:44:00.157Z,102139.50
2023-02-08T21:46:03.725Z,102135.91
2023-02-08T21:48:07.055Z,102145.19
2023-02-08T21:50:31.513Z,102142.78
2023-02-08T21:52:51.666Z,102142.63
2023-02-08T21:54:54.687Z,102140.13
2023-02-08T21:56:57.729Z,102138.47
2023-02-08T21:59:00.530Z,102135.53
2023-02-08T22:01:05.808Z,102142.50
2023-02-08T22:03:08.812Z,102140.00
2023-02-08T22:05:30.872Z,102149.44
2023-02-08T22:07:42.431Z,102138.63
2023-02-08T22:09:45.367Z,102129.22
2023-02-08T22:11:49.029Z,102131.25
2023-02-08T22:13:51.834Z,102127.59
2023-02-08T22:15:54.707Z,102133.44
2023-02-08T22:17:58.646Z,102122.50
2023-02-08T22:20:01.629Z,102124.50
2023-02-08T22:22:05.956Z,102121.88
2023-02-08T22:24:09.076Z,102124.41
2023-02-08T22:26:11.996Z,102126.28
2023-02-08T22:28:14.944Z,102121.22
2023-02-08T22:30:19.820Z,102123.16
2023-02-08T22:32:22.761Z,102127.81
2023-02-08T22:34:27.031Z,102119.47
2023-02-08T22:36:29.887Z,102132.03
2023-02-08T22:38:34.108Z,102129.88
2023-02-08T22:40:37.265Z,102131.66
2023-02-08T22:42:40.355Z,102128.97
2023-02-08T22:44:45.122Z,102146.66
2023-02-08T22:46:48.108Z,102150.41
2023-02-08T22:48:50.977Z,102129.69
2023-02-08T22:50:56.436Z,102132.03
2023-02-08T22:52:59.291Z,102126.78
2023-02-08T22:55:04.843Z,102128.63
2023-02-08T22:57:09.611Z,102136.06
2023-02-08T22:59:12.496Z,102121.59
2023-02-08T23:01:17.396Z,102134.50
2023-02-08T23:03:20.686Z,102123.44
2023-02-08T23:05:23.523Z,102128.63
2023-02-08T23:07:26.366Z,102132.09
2023-02-08T23:09:29.360Z,102131.13
2023-02-08T23:11:33.833Z,102123.94
2023-02-08T23:13:36.634Z,102123.00
2023-02-08T23:15:42.407Z,102110.13
2023-02-08T23:17:45.290Z,102111.41
2023-02-08T23:19:48.119Z,102111.75
2023-02-08T23:21:51.002Z,102119.66
2023-02-08T23:23:53.899Z,102112.22
2023-02-08T23:25:56.702Z,102116.69
2023-02-08T23:28:01.023Z,102103.34
2023-02-08T23:30:04.811Z,102107.09
2023-02-08T23:32:07.800Z,102113.06
2023-02-08T23:34:12.617Z,102104.47
2023-02-08T23:36:17.578Z,102112.22
2023-02-08T23:38:20.440Z,102116.16
2023-02-08T23:40:23.272Z,102109.00
2023-02-08T23:42:28.800Z,102107.41
2023-02-08T23:44:32.976Z,102111.75
2023-02-08T23:46:36.165Z,102108.22
2023-02-08T23:48:39.555Z,102110.78
2023-02-08T23:50:42.643Z,102114.38
2023-02-08T23:52:45.676Z,102105.88
2023-02-08T23:54:48.966Z,102105.78
2023-02-08T23:56:52.388Z,102108.25